createdAt,value
2023-01-11T00:03:01.142Z,16.2
2023-01-11T00:08:01.083Z,18.3
2023-01-11T00:13:01.101Z,23.6
2023-01-11T00:18:01.196Z,24.9
2023-01-11T00:23:01.072Z,24.8
2023-01-11T00:28:01.146Z,24.0
2023-01-11T00:33:01.096Z,22.6
2023-01-11T00:38:01.109Z,17.8
2023-01-11T00:43:01.076Z,15.5
2023-01-11T00:48:01.143Z,14.1
2023-01-11T00:53:01.108Z,15.3
2023-01-11T00:58:01.068Z,14.8
2023-01-11T01:03:01.051Z,14.3
2023-01-11T01:08:01.075Z,15.3
2023-01-11T01:13:01.087Z,16.5
2023-01-11T01:18:01.071Z,16.9
2023-01-11T01:23:01.479Z,17.3
2023-01-11T01:28:01.075Z,17.6
2023-01-11T01:33:01.086Z,17.4
2023-01-11T01:38:01.069Z,17.0
2023-01-11T01:43:01.069Z,16.6
2023-01-11T01:48:01.067Z,16.1
2023-01-11T01:53:01.101Z,15.4
2023-01-11T01:58:01.067Z,15.2
2023-01-11T02:03:01.121Z,15.3
2023-01-11T02:08:01.150Z,14.7
2023-01-11T02:13:01.105Z,13.3
2023-01-11T02:23:01.111Z,12.5
2023-01-11T02:28:01.056Z,11.7
2023-01-11T02:33:01.098Z,11.8
2023-01-11T02:38:01.075Z,12.6
2023-01-11T02:43:01.063Z,13.2
2023-01-11T02:48:01.067Z,14.0
2023-01-11T02:53:01.105Z,13.3
2023-01-11T02:58:01.065Z,13.9
2023-01-11T03:03:12.884Z,14.5
2023-01-11T03:08:01.071Z,14.4
2023-01-11T03:13:01.087Z,14.1
2023-01-11T03:18:01.150Z,15.3
2023-01-11T03:23:01.868Z,15.0
2023-01-11T03:28:01.120Z,14.6
2023-01-11T03:33:01.091Z,14.0
2023-01-11T03:38:01.764Z,13.1
2023-01-11T03:43:01.125Z,13.6
2023-01-11T03:48:01.056Z,13.5
2023-01-11T03:53:01.124Z,14.7
2023-01-11T03:58:01.062Z,15.2
2023-01-11T04:03:01.076Z,16.0
2023-01-11T04:08:01.079Z,15.1
2023-01-11T04:13:01.500Z,15.4
2023-01-11T04:18:01.075Z,14.3
2023-01-11T04:24:01.185Z,14.0
2023-01-11T04:34:01.087Z,13.4
2023-01-11T04:39:01.119Z,12.4
2023-01-11T04:44:01.468Z,12.1
2023-01-11T04:49:01.066Z,12.4
2023-01-11T05:04:01.156Z,12.0
2023-01-11T05:09:01.093Z,11.9
2023-01-11T05:14:01.078Z,11.2
2023-01-11T05:19:01.063Z,10.5
2023-01-11T05:24:01.121Z,11.0
2023-01-11T05:29:01.102Z,11.7
2023-01-11T05:34:01.177Z,10.9
2023-01-11T05:39:01.091Z,10.6
2023-01-11T05:45:02.272Z,10.3
2023-01-11T05:50:01.060Z,9.7
2023-01-11T05:55:01.076Z,10.0
2023-01-11T06:00:02.564Z,10.9
2023-01-11T06:05:01.085Z,11.7
2023-01-11T06:10:01.123Z,12.7
2023-01-11T06:16:01.069Z,12.3
2023-01-11T06:21:01.115Z,11.9
2023-01-11T06:26:01.063Z,11.2
2023-01-11T06:31:01.139Z,10.4
2023-01-11T06:36:01.085Z,11.1
2023-01-11T06:41:01.123Z,11.9
2023-01-11T06:46:01.099Z,12.0
2023-01-11T06:51:01.218Z,12.9
2023-01-11T06:56:01.089Z,12.6
2023-01-11T07:01:01.165Z,12.0
2023-01-11T07:06:01.071Z,11.4
2023-01-11T07:11:01.093Z,12.5
2023-01-11T07:16:06.188Z,11.8
2023-01-11T07:21:01.076Z,11.9
2023-01-11T07:26:01.107Z,10.7
2023-01-11T07:31:01.972Z,10.4
2023-01-11T07:36:01.117Z,8.9
2023-01-11T07:41:01.062Z,9.6
2023-01-11T07:51:01.098Z,10.6
2023-01-11T07:56:01.615Z,10.2
2023-01-11T08:06:01.065Z,9.2
2023-01-11T08:11:05.535Z,9.3
2023-01-11T08:16:01.142Z,8.7
2023-01-11T08:21:01.083Z,9.0
2023-01-11T08:31:01.099Z,8.6
2023-01-11T08:36:01.061Z,8.3
2023-01-11T08:41:01.085Z,8.5
2023-01-11T08:46:01.103Z,9.7
2023-01-11T08:51:01.126Z,10.4
2023-01-11T08:56:01.064Z,11.6
2023-01-11T09:01:01.070Z,12.2
2023-01-11T09:06:01.779Z,11.6
2023-01-11T09:11:01.082Z,11.5
2023-01-11T09:16:01.120Z,10.6
2023-01-11T09:21:01.131Z,10.2
2023-01-11T09:26:01.063Z,9.8
2023-01-11T09:31:01.753Z,10.1
2023-01-11T09:36:01.149Z,8.8
2023-01-11T09:41:16.434Z,8.5
2023-01-11T09:46:01.071Z,9.0
2023-01-11T09:51:01.211Z,9.1
2023-01-11T09:56:03.223Z,9.3
2023-01-11T10:01:01.570Z,9.9
2023-01-11T10:06:16.431Z,10.6
2023-01-11T10:30:05.435Z,10.6
2023-01-11T10:35:00.701Z,11.4
2023-01-11T10:40:08.416Z,11.5
2023-01-11T10:45:05.073Z,10.2
2023-01-11T10:50:05.862Z,10.8
2023-01-11T10:55:16.061Z,11.2
2023-01-11T11:00:16.137Z,10.8
2023-01-11T11:05:00.728Z,10.1
2023-01-11T11:10:00.784Z,10.9
2023-01-11T11:15:07.388Z,11.8
2023-01-11T11:20:00.818Z,11.7
2023-01-11T11:25:00.730Z,11.9
2023-01-11T11:30:01.348Z,12.3
2023-01-11T11:35:00.720Z,12.4
2023-01-11T11:40:00.712Z,11.3
2023-01-11T11:45:13.696Z,10.7
2023-01-11T11:50:00.760Z,9.5
2023-01-11T11:55:00.706Z,8.8
2023-01-11T12:00:04.532Z,8.1
2023-01-11T12:05:00.813Z,7.7
2023-01-11T12:10:00.735Z,7.2
2023-01-11T12:15:16.245Z,8.0
2023-01-11T12:25:03.371Z,7.8
2023-01-11T12:30:18.386Z,7.4
2023-01-11T12:35:00.742Z,7.0
2023-01-11T12:40:00.717Z,6.0
2023-01-11T12:45:16.111Z,4.9
2023-01-11T12:50:00.747Z,5.9
2023-01-11T12:55:00.736Z,5.2
2023-01-11T13:00:16.084Z,7.1
2023-01-11T13:05:00.819Z,7.7
2023-01-11T13:10:00.743Z,10.8
2023-01-11T13:15:05.840Z,13.6
2023-01-11T13:20:00.740Z,17.3
2023-01-11T13:25:00.782Z,21.0
2023-01-11T13:30:01.785Z,20.5
2023-01-11T13:35:00.826Z,19.1
2023-01-11T13:40:15.729Z,16.0
2023-01-11T13:45:11.945Z,13.4
2023-01-11T13:50:00.726Z,9.1
2023-01-11T13:55:09.086Z,10.8
2023-01-11T14:00:16.134Z,11.0
2023-01-11T14:05:00.745Z,12.0
2023-01-11T14:10:00.724Z,12.8
2023-01-11T14:15:16.060Z,15.5
2023-01-11T14:20:00.789Z,15.4
2023-01-11T14:25:00.732Z,15.7
2023-01-11T14:30:12.369Z,15.2
2023-01-11T14:35:00.727Z,14.9
2023-01-11T14:40:01.898Z,12.6
2023-01-11T14:45:16.282Z,11.4
2023-01-11T14:50:00.735Z,9.9
2023-01-11T14:55:00.737Z,8.5
2023-01-11T15:00:03.338Z,6.8
2023-01-11T15:05:00.784Z,5.1
2023-01-11T15:10:03.285Z,3.8
2023-01-11T15:15:04.236Z,3.5
2023-01-11T15:20:00.779Z,2.9
2023-01-11T15:25:00.764Z,2.2
2023-01-11T15:30:02.329Z,1.9
2023-01-11T15:35:00.749Z,2.2
2023-01-11T15:40:00.794Z,1.7
2023-01-11T15:45:16.932Z,1.4
2023-01-11T15:50:00.744Z,1.2
2023-01-11T15:55:00.765Z,1.0
2023-01-11T16:00:16.266Z,0.6
2023-01-11T16:10:00.782Z,1.2
2023-01-11T16:15:15.276Z,1.2
2023-01-11T16:20:11.965Z,1.1
2023-01-11T16:25:00.771Z,1.2
2023-01-11T16:30:01.932Z,1.0
2023-01-11T16:35:00.772Z,0.4
2023-01-11T16:40:00.845Z,0.6
2023-01-11T16:45:06.237Z,0.5
2023-01-11T16:50:00.792Z,0.6
2023-01-11T16:55:01.471Z,0.8
2023-01-11T17:00:05.780Z,0.7
2023-01-11T17:05:00.767Z,0.6
2023-01-11T17:10:00.771Z,0.8
2023-01-11T17:15:11.079Z,0.8
2023-01-11T17:20:00.800Z,1.0
2023-01-11T17:30:03.267Z,0.8
2023-01-11T17:45:06.466Z,0.8
2023-01-11T17:50:00.800Z,1.0
2023-01-11T17:55:01.029Z,1.3
2023-01-11T18:00:16.439Z,1.9
2023-01-11T18:05:05.776Z,2.7
2023-01-11T18:10:03.234Z,2.9
2023-01-11T18:15:03.386Z,3.7
2023-01-11T18:20:00.827Z,4.0
2023-01-11T18:25:00.788Z,3.9
2023-01-11T18:30:04.762Z,3.4
2023-01-11T18:35:00.798Z,3.2
2023-01-11T18:40:00.904Z,2.8
2023-01-11T18:45:01.197Z,2.8
2023-01-11T18:50:00.799Z,3.5
2023-01-11T19:00:01.885Z,3.6
2023-01-11T19:05:00.795Z,4.2
2023-01-11T19:10:01.052Z,4.0
2023-01-11T19:15:01.430Z,3.8
2023-01-11T19:20:00.829Z,4.0
2023-01-11T19:25:00.838Z,3.9
2023-01-11T19:30:02.557Z,3.4
2023-01-11T19:40:00.829Z,3.1
2023-01-11T19:45:01.185Z,2.9
2023-01-11T19:50:00.841Z,3.4
2023-01-11T20:00:01.381Z,3.8
2023-01-11T20:05:00.809Z,4.1
2023-01-11T20:10:00.827Z,3.9
2023-01-11T20:15:02.438Z,3.6
2023-01-11T20:20:00.852Z,3.8
2023-01-11T20:25:00.826Z,4.0
2023-01-11T20:30:01.198Z,4.3
2023-01-11T20:35:00.816Z,5.3
2023-01-11T20:40:00.848Z,5.8
2023-01-11T20:45:01.199Z,6.1
2023-01-11T20:55:00.970Z,5.8
2023-01-11T21:00:01.583Z,6.1
2023-01-11T21:05:00.815Z,6.6
2023-01-11T21:10:01.044Z,6.4
2023-01-11T21:15:02.910Z,6.3
2023-01-11T21:20:00.843Z,6.4
2023-01-11T21:25:01.534Z,6.2
2023-01-11T21:30:01.331Z,5.6
2023-01-11T21:35:00.818Z,6.1
2023-01-11T21:40:00.871Z,6.5
2023-01-11T21:45:01.274Z,6.2
2023-01-11T21:50:00.832Z,5.8
2023-01-11T22:00:02.988Z,5.7
2023-01-11T22:05:00.929Z,5.5
2023-01-11T22:10:04.728Z,6.2
2023-01-11T22:15:01.308Z,6.4
2023-01-11T22:20:00.869Z,6.8
2023-01-11T22:30:01.303Z,6.6
2023-01-11T22:35:00.833Z,5.9
2023-01-11T22:40:02.922Z,5.4
2023-01-11T22:45:01.252Z,5.0
2023-01-11T22:50:00.856Z,4.8
2023-01-11T22:55:01.472Z,4.9
2023-01-11T23:00:01.548Z,4.7
2023-01-11T23:05:01.286Z,4.4
2023-01-11T23:10:00.868Z,4.0
2023-01-11T23:15:01.323Z,4.0
2023-01-11T23:20:00.965Z,4.1
2023-01-11T23:25:00.858Z,4.3
2023-01-11T23:30:01.337Z,4.2
2023-01-11T23:35:00.865Z,4.6
2023-01-11T23:40:00.882Z,4.2
2023-01-11T23:45:01.483Z,3.9
2023-01-11T23:50:00.882Z,3.4
2023-01-11T23:55:00.856Z,3.2
